createdAt,value
2022-08-20T00:02:12.299Z,17.60
2022-08-20T00:06:06.339Z,17.60
2022-08-20T00:10:07.581Z,17.50
2022-08-20T00:13:51.249Z,17.50
2022-08-20T00:17:37.218Z,17.50
2022-08-20T00:22:15.431Z,17.50
2022-08-20T00:25:57.235Z,17.50
2022-08-20T00:29:40.209Z,17.40
2022-08-20T00:33:22.982Z,17.40
2022-08-20T00:37:05.034Z,17.30
2022-08-20T00:40:52.345Z,17.30
2022-08-20T00:44:34.324Z,17.30
2022-08-20T00:48:16.189Z,17.20
2022-08-20T00:52:54.484Z,17.20
2022-08-20T00:56:36.369Z,17.20
2022-08-20T01:00:40.241Z,17.20
2022-08-20T01:04:22.110Z,17.10
2022-08-20T01:08:04.225Z,17.10
2022-08-20T01:12:06.919Z,17.00
2022-08-20T01:15:50.387Z,16.90
2022-08-20T01:19:58.429Z,16.90
2022-08-20T01:24:01.008Z,16.90
2022-08-20T01:27:43.059Z,16.90
2022-08-20T01:31:26.688Z,16.80
2022-08-20T01:35:09.289Z,16.80
2022-08-20T01:39:47.655Z,16.80
2022-08-20T01:43:29.493Z,16.80
2022-08-20T01:47:23.834Z,16.80
2022-08-20T01:51:29.033Z,16.80
2022-08-20T01:55:10.801Z,16.70
2022-08-20T01:59:12.186Z,16.70
2022-08-20T02:02:53.970Z,16.70
2022-08-20T02:06:39.056Z,16.70
2022-08-20T02:11:17.470Z,16.70
2022-08-20T02:15:00.142Z,16.60
2022-08-20T02:18:42.078Z,16.60
2022-08-20T02:22:30.169Z,16.60
2022-08-20T02:26:11.950Z,16.50
2022-08-20T02:30:50.220Z,16.50
2022-08-20T02:34:34.703Z,16.50
2022-08-20T02:38:16.692Z,16.50
2022-08-20T02:41:58.662Z,16.50
2022-08-20T02:45:43.769Z,16.40
2022-08-20T02:49:45.512Z,16.40
2022-08-20T02:53:28.037Z,16.30
2022-08-20T02:57:14.866Z,16.30
2022-08-20T03:02:00.473Z,16.30
2022-08-20T03:05:43.789Z,16.20
2022-08-20T03:09:27.736Z,16.20
2022-08-20T03:13:12.616Z,16.20
2022-08-20T03:16:54.521Z,16.10
2022-08-20T03:21:32.569Z,16.10
2022-08-20T03:25:14.372Z,16.10
2022-08-20T03:29:01.262Z,16.00
2022-08-20T03:32:43.734Z,16.00
2022-08-20T03:36:27.849Z,16.00
2022-08-20T03:41:06.967Z,16.00
2022-08-20T03:44:58.555Z,16.00
2022-08-20T03:49:37.485Z,16.00
2022-08-20T03:53:19.394Z,16.00
2022-08-20T03:57:02.722Z,16.00
2022-08-20T04:01:46.008Z,16.00
2022-08-20T04:05:29.395Z,15.90
2022-08-20T04:09:52.837Z,15.90
2022-08-20T04:13:37.117Z,16.00
2022-08-20T04:17:24.318Z,16.00
2022-08-20T04:22:02.707Z,16.00
2022-08-20T04:25:44.838Z,15.90
2022-08-20T04:29:46.167Z,15.90
2022-08-20T04:33:34.218Z,15.90
2022-08-20T04:37:21.117Z,15.90
2022-08-20T04:41:23.112Z,15.90
2022-08-20T04:45:06.475Z,15.90
2022-08-20T04:49:07.446Z,15.80
2022-08-20T04:52:49.383Z,15.90
2022-08-20T04:56:32.674Z,15.90
2022-08-20T05:01:10.795Z,15.90
2022-08-20T05:04:52.662Z,15.80
2022-08-20T05:08:53.866Z,15.80
2022-08-20T05:12:35.634Z,15.80
2022-08-20T05:16:18.102Z,15.80
2022-08-20T05:20:56.286Z,15.80
2022-08-20T05:24:39.675Z,15.80
2022-08-20T05:28:23.938Z,15.80
2022-08-20T05:32:05.935Z,15.80
2022-08-20T05:35:48.612Z,15.80
2022-08-20T05:39:50.601Z,15.90
2022-08-20T05:43:33.544Z,15.90
2022-08-20T05:47:15.748Z,15.90
2022-08-20T05:55:53.596Z,16.00
2022-08-20T06:00:18.329Z,16.00
2022-08-20T06:04:19.173Z,16.10
2022-08-20T06:08:07.707Z,16.10
2022-08-20T06:12:46.267Z,16.20
2022-08-20T06:16:29.623Z,16.20
2022-08-20T06:20:51.478Z,16.30
2022-08-20T06:24:33.329Z,16.40
2022-08-20T06:28:15.187Z,16.50
2022-08-20T06:31:57.153Z,16.60
2022-08-20T06:35:38.971Z,16.70
2022-08-20T06:39:25.092Z,16.80
2022-08-20T06:43:09.083Z,16.90
2022-08-20T06:46:50.855Z,17.10
2022-08-20T06:50:46.981Z,17.30
2022-08-20T06:54:29.482Z,17.50
2022-08-20T06:58:26.775Z,17.70
2022-08-20T07:02:14.102Z,17.80
2022-08-20T07:05:56.333Z,17.90
2022-08-20T07:10:34.679Z,18.10
2022-08-20T07:14:17.030Z,18.20
2022-08-20T07:18:01.651Z,18.40
2022-08-20T07:22:39.846Z,18.50
2022-08-20T07:26:21.746Z,18.50
2022-08-20T07:30:57.104Z,18.70
2022-08-20T07:34:39.654Z,18.70
2022-08-20T07:38:27.360Z,18.80
2022-08-20T07:42:09.192Z,18.80
2022-08-20T07:45:56.432Z,18.90
2022-08-20T07:49:58.998Z,19.00
2022-08-20T07:53:40.979Z,19.00
2022-08-20T07:57:22.873Z,19.00
2022-08-20T08:01:06.048Z,19.00
2022-08-20T08:04:47.905Z,19.00
2022-08-20T08:08:29.786Z,19.10
2022-08-20T08:12:13.371Z,19.10
2022-08-20T08:15:57.489Z,19.10
2022-08-20T08:19:42.522Z,19.20
2022-08-20T08:23:24.725Z,19.20
2022-08-20T08:27:14.611Z,19.30
2022-08-20T08:31:15.663Z,19.30
2022-08-20T08:34:57.588Z,19.40
2022-08-20T08:39:36.068Z,19.40
2022-08-20T08:43:21.174Z,19.50
2022-08-20T08:47:18.522Z,19.60
2022-08-20T08:51:03.995Z,19.60
2022-08-20T08:54:48.110Z,19.70
2022-08-20T08:58:30.067Z,19.80
2022-08-20T09:02:18.927Z,19.90
2022-08-20T09:06:02.461Z,20.10
2022-08-20T09:10:03.366Z,20.10
2022-08-20T09:13:45.351Z,20.30
2022-08-20T09:17:27.147Z,20.40
2022-08-20T09:21:11.437Z,20.40
2022-08-20T09:24:53.566Z,20.50
2022-08-20T09:28:37.263Z,20.70
2022-08-20T09:32:23.288Z,20.80
2022-08-20T09:36:32.385Z,21.00
2022-08-20T09:40:11.639Z,21.30
2022-08-20T09:43:54.485Z,21.60
2022-08-20T09:47:36.271Z,21.80
2022-08-20T09:52:00.131Z,21.90
2022-08-20T09:55:46.197Z,22.00
2022-08-20T10:00:07.097Z,22.10
2022-08-20T10:03:49.227Z,22.30
2022-08-20T10:07:31.081Z,22.30
2022-08-20T10:11:31.950Z,22.40
2022-08-20T10:15:13.972Z,22.40
2022-08-20T10:23:38.023Z,22.80
2022-08-20T10:27:19.844Z,22.90
2022-08-20T10:31:01.825Z,23.00
2022-08-20T10:34:44.512Z,23.10
2022-08-20T10:38:27.516Z,23.20
2022-08-20T10:42:09.317Z,23.20
2022-08-20T10:45:51.562Z,23.20
2022-08-20T10:50:13.441Z,23.20
2022-08-20T10:53:55.249Z,23.20
2022-08-20T10:57:38.131Z,23.40
2022-08-20T11:02:16.420Z,23.50
2022-08-20T11:05:58.360Z,23.60
2022-08-20T11:09:42.682Z,23.70
2022-08-20T11:13:24.560Z,23.80
2022-08-20T11:17:06.627Z,24.00
2022-08-20T11:21:27.998Z,24.20
2022-08-20T11:25:10.175Z,24.50
2022-08-20T11:28:54.132Z,24.70
2022-08-20T11:32:36.116Z,24.80
2022-08-20T11:36:17.955Z,24.90
2022-08-20T11:40:55.993Z,25.10
2022-08-20T11:44:37.851Z,25.10
2022-08-20T11:48:19.706Z,25.20
2022-08-20T11:52:01.720Z,25.30
2022-08-20T11:55:44.846Z,25.30
2022-08-20T12:00:31.733Z,25.40
2022-08-20T12:04:15.522Z,25.40
2022-08-20T12:07:57.839Z,25.50
2022-08-20T12:12:36.327Z,25.60
2022-08-20T12:16:18.815Z,25.70
2022-08-20T12:20:57.150Z,25.80
2022-08-20T12:24:39.242Z,25.90
2022-08-20T12:28:25.913Z,26.00
2022-08-20T12:32:08.083Z,25.90
2022-08-20T12:35:49.914Z,25.80
2022-08-20T12:39:34.605Z,25.80
2022-08-20T12:43:16.656Z,25.80
2022-08-20T12:47:18.344Z,25.70
2022-08-20T12:51:21.322Z,25.60
2022-08-20T12:55:03.536Z,25.60
2022-08-20T12:59:05.154Z,25.60
2022-08-20T13:02:47.122Z,25.60
2022-08-20T13:06:28.970Z,25.50
2022-08-20T13:11:07.095Z,25.40
2022-08-20T13:14:49.006Z,25.40
2022-08-20T13:18:49.855Z,25.40
2022-08-20T13:22:31.730Z,25.40
2022-08-20T13:26:16.020Z,25.40
2022-08-20T13:29:59.310Z,25.40
2022-08-20T13:33:41.280Z,25.50
2022-08-20T13:37:25.894Z,25.50
2022-08-20T13:41:29.767Z,25.60
2022-08-20T13:45:11.881Z,25.80
2022-08-20T13:49:49.922Z,25.80
2022-08-20T13:53:31.736Z,25.80
2022-08-20T13:57:17.200Z,25.80
2022-08-20T14:01:55.509Z,25.80
2022-08-20T14:05:37.455Z,25.90
2022-08-20T14:09:19.487Z,26.10
2022-08-20T14:13:03.327Z,26.30
2022-08-20T14:16:45.162Z,26.50
2022-08-20T14:21:08.681Z,26.60
2022-08-20T14:24:52.101Z,26.90
2022-08-20T14:28:34.001Z,27.10
2022-08-20T14:32:16.131Z,27.30
2022-08-20T14:35:57.954Z,27.40
2022-08-20T14:39:40.184Z,27.40
2022-08-20T14:43:22.122Z,27.30
2022-08-20T14:47:19.169Z,27.10
2022-08-20T14:51:03.115Z,26.90
2022-08-20T14:54:44.974Z,26.70
2022-08-20T14:58:28.893Z,26.50
2022-08-20T15:02:12.545Z,26.40
2022-08-20T15:05:54.306Z,26.40
2022-08-20T15:09:37.334Z,26.90
2022-08-20T15:13:19.186Z,27.50
2022-08-20T15:17:00.941Z,27.60
2022-08-20T15:20:44.855Z,28.00
2022-08-20T15:24:26.611Z,28.20
2022-08-20T15:28:09.097Z,28.10
2022-08-20T15:31:51.317Z,28.40
2022-08-20T15:35:33.152Z,29.40
2022-08-20T15:39:15.193Z,30.30
2022-08-20T15:43:02.716Z,30.30
2022-08-20T15:46:44.594Z,30.10
2022-08-20T15:51:00.491Z,29.70
2022-08-20T15:54:42.315Z,29.40
2022-08-20T15:58:27.375Z,29.70
2022-08-20T16:02:25.552Z,29.90
2022-08-20T16:06:15.297Z,29.70
2022-08-20T16:10:21.997Z,29.30
2022-08-20T16:14:17.079Z,28.80
2022-08-20T16:18:07.303Z,28.30
2022-08-20T16:21:51.418Z,27.90
2022-08-20T16:26:11.917Z,27.60
2022-08-20T16:30:07.177Z,27.80
2022-08-20T16:34:02.958Z,27.80
2022-08-20T16:38:10.654Z,27.60
2022-08-20T16:41:54.548Z,27.40
2022-08-20T16:45:56.621Z,27.10
2022-08-20T16:49:40.294Z,26.90
2022-08-20T16:53:22.918Z,26.60
2022-08-20T16:57:05.733Z,26.30
2022-08-20T17:00:48.953Z,26.00
2022-08-20T17:04:30.749Z,25.80
2022-08-20T17:08:20.094Z,25.60
2022-08-20T17:12:24.293Z,25.40
2022-08-20T17:16:13.905Z,25.20
2022-08-20T17:19:59.570Z,24.90
2022-08-20T17:23:55.991Z,24.80
2022-08-20T17:27:39.237Z,24.70
2022-08-20T17:31:39.163Z,24.60
2022-08-20T17:35:22.538Z,24.50
2022-08-20T17:39:06.548Z,24.30
2022-08-20T17:42:50.385Z,24.20
2022-08-20T17:46:41.446Z,24.10
2022-08-20T17:50:31.602Z,23.90
2022-08-20T17:54:15.547Z,23.80
2022-08-20T17:57:57.903Z,23.70
2022-08-20T18:01:41.970Z,23.50
2022-08-20T18:05:23.919Z,23.50
2022-08-20T18:09:11.395Z,23.40
2022-08-20T18:12:56.218Z,23.30
2022-08-20T18:16:58.300Z,23.10
2022-08-20T18:21:00.948Z,23.10
2022-08-20T18:25:10.202Z,22.90
2022-08-20T18:28:58.514Z,22.90
2022-08-20T18:32:40.331Z,22.80
2022-08-20T18:36:22.087Z,22.70
2022-08-20T18:40:19.543Z,22.60
2022-08-20T18:44:12.070Z,22.50
2022-08-20T18:47:53.854Z,22.50
2022-08-20T18:51:57.281Z,22.50
2022-08-20T18:55:44.189Z,22.40
2022-08-20T18:59:27.173Z,22.40
2022-08-20T19:03:10.431Z,22.30
2022-08-20T19:07:02.274Z,22.30
2022-08-20T19:11:14.702Z,22.20
2022-08-20T19:15:12.603Z,22.20
2022-08-20T19:19:16.722Z,22.10
2022-08-20T19:23:23.595Z,22.10
2022-08-20T19:27:06.746Z,22.10
2022-08-20T19:30:50.245Z,22.10
2022-08-20T19:34:32.209Z,22.10
2022-08-20T19:38:17.543Z,22.00
2022-08-20T19:42:05.903Z,22.00
2022-08-20T19:45:50.354Z,21.90
2022-08-20T19:50:11.426Z,21.90
2022-08-20T19:53:53.183Z,21.90
2022-08-20T19:57:34.958Z,21.80
2022-08-20T20:01:19.579Z,21.80
2022-08-20T20:05:08.717Z,21.80
2022-08-20T20:08:59.673Z,21.80
2022-08-20T20:12:41.449Z,21.70
2022-08-20T20:16:23.187Z,21.60
2022-08-20T20:20:28.101Z,21.70
2022-08-20T20:24:10.355Z,21.60
2022-08-20T20:27:54.612Z,21.60
2022-08-20T20:31:49.879Z,21.50
2022-08-20T20:35:33.878Z,21.40
2022-08-20T20:39:31.815Z,21.30
2022-08-20T20:43:24.241Z,21.30
2022-08-20T20:47:26.658Z,21.20
2022-08-20T20:51:31.072Z,21.10
2022-08-20T20:55:26.826Z,21.00
2022-08-20T20:59:09.271Z,21.00
2022-08-20T21:02:51.274Z,20.90
2022-08-20T21:06:33.086Z,20.80
2022-08-20T21:10:17.395Z,20.70
2022-08-20T21:13:59.167Z,20.60
2022-08-20T21:17:40.959Z,20.50
2022-08-20T21:21:22.861Z,20.40
2022-08-20T21:25:05.104Z,20.30
2022-08-20T21:28:47.989Z,20.20
2022-08-20T21:32:29.801Z,20.20
2022-08-20T21:36:11.541Z,20.00
2022-08-20T21:39:55.677Z,20.00
2022-08-20T21:43:37.546Z,19.90
2022-08-20T21:47:20.273Z,19.80
2022-08-20T21:51:06.210Z,19.70
2022-08-20T21:54:47.951Z,19.60
2022-08-20T21:58:29.888Z,19.50
2022-08-20T22:02:11.696Z,19.50
2022-08-20T22:05:53.618Z,19.40
2022-08-20T22:09:36.430Z,19.30
2022-08-20T22:13:18.202Z,19.20
2022-08-20T22:17:00.111Z,19.20
2022-08-20T22:20:43.675Z,19.10
2022-08-20T22:24:25.965Z,19.00
2022-08-20T22:28:07.898Z,19.00
2022-08-20T22:32:09.057Z,18.90
2022-08-20T22:35:55.316Z,18.80
2022-08-20T22:39:38.213Z,18.70
2022-08-20T22:43:20.591Z,18.70
2022-08-20T22:47:05.065Z,18.70
2022-08-20T22:50:49.834Z,18.60
2022-08-20T22:54:31.596Z,18.60
2022-08-20T22:58:13.388Z,18.60
2022-08-20T23:01:56.559Z,18.60
2022-08-20T23:05:38.359Z,18.50
2022-08-20T23:09:40.474Z,18.50
2022-08-20T23:13:22.214Z,18.40
2022-08-20T23:17:14.626Z,18.40
2022-08-20T23:20:57.153Z,18.30
2022-08-20T23:24:38.958Z,18.30
2022-08-20T23:28:21.701Z,18.20
2022-08-20T23:32:03.838Z,18.20
2022-08-20T23:35:45.665Z,18.20
2022-08-20T23:39:46.702Z,18.20
2022-08-20T23:43:28.832Z,18.10
2022-08-20T23:47:10.633Z,18.10
2022-08-20T23:50:52.651Z,18.10
2022-08-20T23:54:34.409Z,18.00
2022-08-20T23:58:16.283Z,18.00
